Track салданов виктор

Time Latitude Longitude Accuracy (66% radius in meters) Altitude (meters) Speed (km/hour) Bearing (degrees) Battery (%) GPS flag
06:40:46 51.761829 107.092315 3 677 3.1324911117554 149.5 88 1 delete
06:40:42 51.761921 107.092234 3 676 3.354101896286 150.80000305176 88 1 delete
06:40:38 51.762024 107.092156 3 677 3.354101896286 155.89999389648 88 1 delete
06:40:34 51.762129 107.092098 4 676 3.354101896286 162.10000610352 88 1 delete
06:40:30 51.762231 107.092052 5 674 3.354101896286 174.60000610352 88 1 delete
06:40:26 51.762343 107.092040 4 674 2.9154758453369 181 88 1 delete
06:40:21 51.762454 107.092037 3 673 2.9154758453369 183.10000610352 88 1 delete
06:40:16 51.762567 107.092028 4 673 2.9154758453369 184 88 1 delete
06:40:12 51.762658 107.092040 4 676 3.1324911117554 197.19999694824 88 1 delete
06:40:08 51.762759 107.092093 4 675 3.5794553756714 199.89999389648 88 1 delete
06:40:05 51.762853 107.092161 4 676 3.5794553756714 198.89999389648 88 1 delete
06:40:02 51.762948 107.092215 4 676 3.5794553756714 198.60000610352 88 1 delete
06:39:59 51.763035 107.092263 4 676 3.5794553756714 203.5 88 1 delete
06:39:55 51.763142 107.092330 4 675 3.354101896286 211.30000305176 88 1 delete
06:39:51 51.763232 107.092423 4 674 4.2720017433167 227.89999389648 88 1 delete
06:39:48 51.763301 107.092555 4 675 4.2720017433167 235.69999694824 88 1 delete
06:39:45 51.763358 107.092697 4 674 4.2720017433167 232.60000610352 88 1 delete
06:39:42 51.763421 107.092836 4 673 4.5069389343262 235.80000305176 88 1 delete
06:39:39 51.763492 107.093000 4 672 4.5069389343262 232.10000610352 88 1 delete
06:39:36 51.763567 107.093164 3 674 3.8078866004944 251.5 88 1 delete
06:39:22 51.763624 107.093341 4 671 2.9154758453369 204.5 88 1 delete
06:39:19 51.763699 107.093428 4 670 5.4600825309753 215.5 88 1 delete
06:39:17 51.763788 107.093546 4 669 4.9812145233154 216.10000610352 88 1 delete
06:39:15 51.763865 107.093642 4 669 3.5794553756714 213.60000610352 88 1 delete
06:39:12 51.763940 107.093738 3 671 3.1324911117554 216.30000305176 88 1 delete
06:39:08 51.764019 107.093860 3 673 2.9154758453369 178 88 1 delete
06:39:04 51.764115 107.093792 3 672 4.5069389343262 141.5 88 1 delete
06:39:01 51.764212 107.093688 3 672 4.7434163093567 153.10000610352 88 1 delete
06:38:58 51.764320 107.093605 4 673 3.8078866004944 143 88 1 delete
06:38:54 51.764415 107.093486 3 675 3.5794553756714 140.30000305176 88 1 delete
06:38:51 51.764490 107.093391 3 674 4.2720017433167 144.5 88 1 delete
06:38:48 51.764582 107.093286 3 673 4.2720017433167 143.89999389648 88 1 delete
06:38:45 51.764676 107.093174 3 676 3.8078866004944 145.69999694824 88 1 delete
06:38:41 51.764781 107.093068 3 676 3.354101896286 153.19999694824 88 1 delete
06:38:37 51.764884 107.092988 4 675 3.8078866004944 152 88 1 delete
06:38:34 51.764976 107.092921 3 675 3.1324911117554 155.80000305176 88 1 delete
06:38:30 51.765078 107.092862 4 675 3.1324911117554 169.39999389648 88 1 delete
06:38:26 51.765178 107.092831 3 673 3.1324911117554 165.39999389648 88 1 delete
06:38:22 51.765285 107.092796 3 674 3.1324911117554 163.69999694824 88 1 delete
06:38:18 51.765391 107.092772 4 675 2.7041635513306 176.5 88 1 delete
06:38:13 51.765492 107.092790 4 676 2.5 186.39999389648 88 1 delete
06:38:08 51.765583 107.092821 4 674 2.5 195.10000610352 88 1 delete
06:37:54 51.765663 107.092888 3 668 3.1324911117554 40 88 1 delete
06:37:51 51.765596 107.092789 3 669 5.4600825309753 22.39999961853 88 1 delete
06:37:49 51.765489 107.092733 3 670 3.8078866004944 2.4000000953674 88 1 delete
06:37:46 51.765389 107.092733 4 671 3.5794553756714 351.89999389648 88 1 delete
06:37:43 51.765295 107.092757 4 672 3.5794553756714 343.70001220703 88 1 delete
06:37:40 51.765201 107.092799 4 669 3.5794553756714 342.89999389648 88 1 delete
06:37:36 51.765090 107.092851 4 671 3.5794553756714 341.5 88 1 delete
06:37:33 51.765002 107.092901 3 671 3.8078866004944 336.20001220703 88 1 delete